createdAt,value
2019-02-02T00:01:13.506Z,91.00
2019-02-02T00:03:42.375Z,91.20
2019-02-02T00:06:10.339Z,91.60
2019-02-02T00:08:39.577Z,91.30
2019-02-02T00:11:06.878Z,91.50
2019-02-02T00:13:36.098Z,91.30
2019-02-02T00:16:05.185Z,91.40
2019-02-02T00:18:33.666Z,91.20
2019-02-02T00:21:01.847Z,91.00
2019-02-02T00:23:30.626Z,91.60
2019-02-02T00:25:59.440Z,91.50
2019-02-02T00:28:27.605Z,92.00
2019-02-02T00:30:56.515Z,92.00
2019-02-02T00:33:24.350Z,91.90
2019-02-02T00:35:52.898Z,92.50
2019-02-02T00:38:20.720Z,92.50
2019-02-02T00:40:48.158Z,92.50
2019-02-02T00:43:16.623Z,93.00
2019-02-02T00:45:45.411Z,93.00
2019-02-02T00:48:14.070Z,93.50
2019-02-02T00:50:42.346Z,93.90
2019-02-02T00:53:10.967Z,93.80
2019-02-02T00:55:38.818Z,93.90
2019-02-02T00:58:07.426Z,94.00
2019-02-02T01:00:37.824Z,94.10
2019-02-02T01:03:05.575Z,93.80
2019-02-02T01:05:32.819Z,93.60
2019-02-02T01:08:01.085Z,93.60
2019-02-02T01:10:31.246Z,93.60
2019-02-02T01:12:59.946Z,93.60
2019-02-02T01:15:28.665Z,93.50
2019-02-02T01:17:57.282Z,93.70
2019-02-02T01:20:25.895Z,93.30
2019-02-02T01:22:54.178Z,93.20
2019-02-02T01:25:23.162Z,93.10
2019-02-02T01:27:51.402Z,93.30
2019-02-02T01:30:20.548Z,93.10
2019-02-02T01:32:49.098Z,93.40
2019-02-02T01:35:17.655Z,94.20
2019-02-02T01:37:45.934Z,94.90
2019-02-02T01:40:16.789Z,95.00
2019-02-02T01:42:58.536Z,95.00
2019-02-02T01:45:26.141Z,95.20
2019-02-02T01:47:55.062Z,95.20
2019-02-02T01:50:24.137Z,95.30
2019-02-02T01:52:51.351Z,95.20
2019-02-02T01:55:18.831Z,95.30
2019-02-02T01:57:46.234Z,95.10
2019-02-02T02:00:16.102Z,95.30
2019-02-02T02:02:43.266Z,95.40
2019-02-02T02:05:11.522Z,95.10
2019-02-02T02:07:40.180Z,95.10
2019-02-02T02:10:09.391Z,95.20
2019-02-02T02:12:37.621Z,95.20
2019-02-02T02:15:07.654Z,95.30
2019-02-02T02:17:37.227Z,95.20
2019-02-02T02:20:05.942Z,95.10
2019-02-02T02:22:40.962Z,95.20
2019-02-02T02:25:04.562Z,95.40
2019-02-02T02:27:31.774Z,95.10
2019-02-02T02:30:00.116Z,95.00
2019-02-02T02:32:27.425Z,95.20
2019-02-02T02:34:55.730Z,95.20
2019-02-02T02:37:23.890Z,95.90
2019-02-02T02:39:52.150Z,95.80
2019-02-02T02:42:20.626Z,95.60
2019-02-02T02:44:48.843Z,95.50
2019-02-02T02:47:17.010Z,95.40
2019-02-02T02:49:45.776Z,95.90
2019-02-02T02:52:14.561Z,95.50
2019-02-02T02:54:42.421Z,95.60
2019-02-02T02:57:09.887Z,95.80
2019-02-02T02:59:38.362Z,95.70
2019-02-02T03:02:06.613Z,95.70
2019-02-02T03:04:35.430Z,95.50
2019-02-02T03:07:04.121Z,95.90
2019-02-02T03:09:31.879Z,96.00
2019-02-02T03:12:00.134Z,96.10
2019-02-02T03:14:28.459Z,96.90
2019-02-02T03:16:55.866Z,97.20
2019-02-02T03:19:28.130Z,97.20
2019-02-02T03:21:55.300Z,97.20
2019-02-02T03:24:22.606Z,97.00
2019-02-02T03:26:49.788Z,97.00
2019-02-02T03:29:16.867Z,97.00
2019-02-02T03:31:48.448Z,96.90
2019-02-02T03:34:15.185Z,97.00
2019-02-02T03:36:42.693Z,97.20
2019-02-02T03:39:11.173Z,97.00
2019-02-02T03:41:39.650Z,97.00
2019-02-02T03:44:07.935Z,97.00
2019-02-02T03:46:36.505Z,97.00
2019-02-02T03:49:05.103Z,97.00
2019-02-02T03:51:32.272Z,97.00
2019-02-02T03:54:08.179Z,96.80
2019-02-02T03:56:30.722Z,96.60
2019-02-02T03:59:06.691Z,96.60
2019-02-02T04:01:30.216Z,97.40
2019-02-02T04:03:58.595Z,98.50
2019-02-02T04:06:26.873Z,98.70
2019-02-02T04:08:55.559Z,98.70
2019-02-02T04:11:22.723Z,98.90
2019-02-02T04:13:50.892Z,99.10
2019-02-02T04:16:19.044Z,99.30
2019-02-02T04:18:47.505Z,99.30
2019-02-02T04:21:15.702Z,99.30
2019-02-02T04:23:44.879Z,99.20
2019-02-02T04:26:13.285Z,99.00
2019-02-02T04:28:41.490Z,99.00
2019-02-02T04:31:10.491Z,99.00
2019-02-02T04:33:39.268Z,98.60
2019-02-02T04:36:08.013Z,98.70
2019-02-02T04:38:36.583Z,99.00
2019-02-02T04:41:04.243Z,99.10
2019-02-02T04:43:33.151Z,99.10
2019-02-02T04:46:00.899Z,99.10
2019-02-02T04:48:32.418Z,99.10
2019-02-02T04:50:59.327Z,99.30
2019-02-02T04:53:27.062Z,99.00
2019-02-02T04:55:54.673Z,99.00
2019-02-02T04:58:22.297Z,99.00
2019-02-02T05:00:49.562Z,99.00
2019-02-02T05:03:18.127Z,99.00
2019-02-02T05:05:46.387Z,99.00
2019-02-02T05:08:15.056Z,99.00
2019-02-02T05:10:43.817Z,99.20
2019-02-02T05:13:11.690Z,99.40
2019-02-02T05:15:40.115Z,99.40
2019-02-02T05:18:07.353Z,99.70
2019-02-02T05:20:35.549Z,99.50
2019-02-02T05:23:03.803Z,99.70
2019-02-02T05:25:31.967Z,99.90
2019-02-02T05:28:00.390Z,99.90
2019-02-02T05:30:29.314Z,99.90
2019-02-02T05:32:57.502Z,99.90
2019-02-02T05:35:25.889Z,99.90
2019-02-02T05:37:54.576Z,99.90
2019-02-02T05:40:22.379Z,99.90
2019-02-02T05:42:50.974Z,99.90
2019-02-02T05:45:20.159Z,99.90
2019-02-02T05:47:48.817Z,99.90
2019-02-02T05:50:18.946Z,99.90
2019-02-02T05:52:47.755Z,99.90
2019-02-02T05:55:17.048Z,99.90
2019-02-02T05:57:45.442Z,99.90
2019-02-02T06:00:18.337Z,99.90
2019-02-02T06:02:46.864Z,99.90
2019-02-02T06:05:15.749Z,99.90
2019-02-02T06:07:43.966Z,99.90
2019-02-02T06:10:13.632Z,99.90
2019-02-02T06:12:42.485Z,99.90
2019-02-02T06:15:11.767Z,99.90
2019-02-02T06:17:39.094Z,99.90
2019-02-02T06:20:08.836Z,99.90
2019-02-02T06:22:36.998Z,99.90
2019-02-02T06:25:06.817Z,99.90
2019-02-02T06:27:33.972Z,99.90
2019-02-02T06:30:04.309Z,99.90
2019-02-02T06:32:32.971Z,99.90
2019-02-02T06:35:00.379Z,99.90
2019-02-02T06:37:28.773Z,99.90
2019-02-02T06:39:57.187Z,99.90
2019-02-02T06:42:26.118Z,99.90
2019-02-02T06:44:54.298Z,99.90
2019-02-02T06:47:22.626Z,99.90
2019-02-02T06:49:50.876Z,99.90
2019-02-02T06:52:19.146Z,99.90
2019-02-02T06:54:47.319Z,99.90
2019-02-02T06:57:15.490Z,99.90
2019-02-02T06:59:43.651Z,99.90
2019-02-02T07:02:11.834Z,99.90
2019-02-02T07:04:40.958Z,99.90
2019-02-02T07:07:09.025Z,99.90
2019-02-02T07:09:37.278Z,99.90
2019-02-02T07:12:05.812Z,99.90
2019-02-02T07:14:33.982Z,99.90
2019-02-02T07:17:02.126Z,99.90
2019-02-02T07:19:30.390Z,99.90
2019-02-02T07:21:57.702Z,99.90
2019-02-02T07:24:27.198Z,99.90
2019-02-02T07:26:55.354Z,99.90
2019-02-02T07:29:23.531Z,99.90
2019-02-02T07:31:51.928Z,99.90
2019-02-02T07:34:20.142Z,99.90
2019-02-02T07:36:48.631Z,99.90
2019-02-02T07:39:16.899Z,99.90
2019-02-02T07:41:45.182Z,99.90
2019-02-02T07:44:13.450Z,99.90
2019-02-02T07:46:41.887Z,99.90
2019-02-02T07:49:10.106Z,99.90
2019-02-02T07:51:38.338Z,99.90
2019-02-02T07:54:05.522Z,99.90
2019-02-02T07:56:33.682Z,99.90
2019-02-02T07:59:01.846Z,99.90
2019-02-02T08:01:39.294Z,99.90
2019-02-02T08:04:06.574Z,99.90
2019-02-02T08:06:33.631Z,99.90
2019-02-02T08:09:04.079Z,99.90
2019-02-02T08:11:31.614Z,99.90
2019-02-02T08:13:58.898Z,99.90
2019-02-02T08:16:26.086Z,99.90
2019-02-02T08:18:53.574Z,99.90
2019-02-02T08:21:21.087Z,99.90
2019-02-02T08:23:48.801Z,99.90
2019-02-02T08:26:17.595Z,99.90
2019-02-02T08:28:45.449Z,99.90
2019-02-02T08:31:13.992Z,99.90
2019-02-02T08:33:45.318Z,99.90
2019-02-02T08:36:12.934Z,99.90
2019-02-02T08:38:42.954Z,99.90
2019-02-02T08:41:11.752Z,99.90
2019-02-02T08:43:40.737Z,99.90
2019-02-02T08:46:08.886Z,99.90
2019-02-02T08:48:37.501Z,99.90
2019-02-02T08:51:06.330Z,99.90
2019-02-02T08:53:33.942Z,99.90
2019-02-02T08:56:02.491Z,99.90
2019-02-02T08:58:31.222Z,99.90
2019-02-02T09:01:04.160Z,99.90
2019-02-02T09:03:29.275Z,99.90
2019-02-02T09:05:57.766Z,99.90
2019-02-02T09:08:26.264Z,99.90
2019-02-02T09:10:54.426Z,99.90
2019-02-02T09:13:23.539Z,99.90
2019-02-02T09:15:51.812Z,99.90
2019-02-02T09:18:19.976Z,99.90
2019-02-02T09:20:48.227Z,99.90
2019-02-02T09:23:16.499Z,99.90
2019-02-02T09:25:44.802Z,99.90
2019-02-02T09:28:13.255Z,99.90
2019-02-02T09:30:40.559Z,99.90
2019-02-02T09:33:08.839Z,99.90
2019-02-02T09:35:36.845Z,99.90
2019-02-02T09:38:05.408Z,99.90
2019-02-02T09:40:33.467Z,99.90
2019-02-02T09:43:01.677Z,99.90
2019-02-02T09:45:29.843Z,99.90
2019-02-02T09:47:58.271Z,99.90
2019-02-02T09:50:27.142Z,99.90
2019-02-02T09:52:54.406Z,99.90
2019-02-02T09:55:23.113Z,99.90
2019-02-02T09:57:54.929Z,99.90
2019-02-02T10:00:28.381Z,99.90
2019-02-02T10:02:59.483Z,99.90
2019-02-02T10:05:27.379Z,99.90
2019-02-02T10:07:55.644Z,99.90
2019-02-02T10:10:24.648Z,99.90
2019-02-02T10:12:52.818Z,99.90
2019-02-02T10:15:21.278Z,99.90
2019-02-02T10:17:49.934Z,99.90
2019-02-02T10:20:21.158Z,99.90
2019-02-02T10:22:49.310Z,99.90
2019-02-02T10:25:19.877Z,99.90
2019-02-02T10:27:48.146Z,99.90
2019-02-02T10:30:22.927Z,99.90
2019-02-02T10:32:51.016Z,99.90
2019-02-02T10:35:19.311Z,99.90
2019-02-02T10:37:47.846Z,99.90
2019-02-02T10:40:17.386Z,99.90
2019-02-02T10:42:45.654Z,99.90
2019-02-02T10:45:14.018Z,99.90
2019-02-02T10:47:43.024Z,99.90
2019-02-02T10:50:13.155Z,99.90
2019-02-02T10:52:41.338Z,99.90
2019-02-02T10:55:10.834Z,99.90
2019-02-02T10:57:39.046Z,99.90
2019-02-02T11:00:19.075Z,99.90
2019-02-02T11:02:46.826Z,99.90
2019-02-02T11:05:14.402Z,99.90
2019-02-02T11:07:41.983Z,99.90
2019-02-02T11:10:13.010Z,99.90
2019-02-02T11:12:44.203Z,99.90
2019-02-02T11:15:13.071Z,99.90
2019-02-02T11:17:40.962Z,99.90
2019-02-02T11:20:11.780Z,99.90
2019-02-02T11:22:39.922Z,99.90
2019-02-02T11:25:09.100Z,99.90
2019-02-02T11:27:38.504Z,99.90
2019-02-02T11:30:09.082Z,99.90
2019-02-02T11:32:40.106Z,99.90
2019-02-02T11:35:09.375Z,99.90
2019-02-02T11:37:38.162Z,99.90
2019-02-02T11:40:09.100Z,99.90
2019-02-02T11:42:36.927Z,99.90
2019-02-02T11:45:05.042Z,99.90
2019-02-02T11:47:33.826Z,99.90
2019-02-02T11:50:02.266Z,99.90
2019-02-02T11:52:30.892Z,99.90
2019-02-02T11:54:59.062Z,99.90
2019-02-02T11:57:27.155Z,99.90
2019-02-02T11:59:55.231Z,99.90
2019-02-02T12:02:23.406Z,99.90
2019-02-02T12:04:51.982Z,99.90
2019-02-02T12:07:19.136Z,99.90
2019-02-02T12:09:47.350Z,99.90
2019-02-02T12:12:15.813Z,99.90
2019-02-02T12:14:44.086Z,99.90
2019-02-02T12:17:12.253Z,99.90
2019-02-02T12:19:40.607Z,99.90
2019-02-02T12:22:08.678Z,99.90
2019-02-02T12:24:37.097Z,99.90
2019-02-02T12:27:05.127Z,99.90
2019-02-02T12:29:34.586Z,99.90
2019-02-02T12:32:03.054Z,99.90
2019-02-02T12:34:30.838Z,99.90
2019-02-02T12:36:59.100Z,99.90
2019-02-02T12:39:27.382Z,99.90
2019-02-02T12:41:56.014Z,99.90
2019-02-02T12:44:24.239Z,99.90
2019-02-02T12:46:52.543Z,99.90
2019-02-02T12:49:20.820Z,99.90
2019-02-02T12:51:49.098Z,99.90
2019-02-02T12:54:17.363Z,99.90
2019-02-02T12:56:45.509Z,99.90
2019-02-02T12:59:13.823Z,99.90
2019-02-02T13:01:42.061Z,99.90
2019-02-02T13:04:09.222Z,99.90
2019-02-02T13:06:37.818Z,99.90
2019-02-02T13:09:08.226Z,99.90
2019-02-02T13:11:36.718Z,99.90
2019-02-02T13:14:04.883Z,99.90
2019-02-02T13:16:36.534Z,99.90
2019-02-02T13:19:03.858Z,99.90
2019-02-02T13:21:32.034Z,99.90
2019-02-02T13:24:00.436Z,99.90
2019-02-02T13:26:28.618Z,99.90
2019-02-02T13:28:57.370Z,99.90
2019-02-02T13:31:24.511Z,99.90
2019-02-02T13:33:52.673Z,99.90
2019-02-02T13:36:20.847Z,99.90
2019-02-02T13:38:49.054Z,99.90
2019-02-02T13:41:17.602Z,99.90
2019-02-02T13:43:44.654Z,99.90
2019-02-02T13:46:13.734Z,99.90
2019-02-02T13:48:41.898Z,99.90
2019-02-02T13:51:10.404Z,99.90
2019-02-02T13:53:38.649Z,99.90
2019-02-02T13:56:06.924Z,99.90
2019-02-02T13:58:36.588Z,99.90
2019-02-02T14:01:05.059Z,99.90
2019-02-02T14:03:34.379Z,99.90
2019-02-02T14:06:02.553Z,99.90
2019-02-02T14:08:30.955Z,99.90
2019-02-02T14:10:59.144Z,99.90
2019-02-02T14:13:27.472Z,99.90
2019-02-02T14:15:55.650Z,99.90
2019-02-02T14:18:24.443Z,99.90
2019-02-02T14:20:51.487Z,99.90
2019-02-02T14:23:19.651Z,99.90
2019-02-02T14:25:47.989Z,99.90
2019-02-02T14:28:28.102Z,99.90
2019-02-02T14:30:48.124Z,99.90
2019-02-02T14:33:15.450Z,99.90
2019-02-02T14:35:43.526Z,99.90
2019-02-02T14:38:12.185Z,99.90
2019-02-02T14:40:45.297Z,99.90
2019-02-02T14:43:12.453Z,99.90
2019-02-02T14:45:39.879Z,99.90
2019-02-02T14:48:07.056Z,99.90
2019-02-02T14:50:34.122Z,99.90
2019-02-02T14:53:01.494Z,99.90
2019-02-02T14:55:33.461Z,99.90
2019-02-02T14:58:01.946Z,99.90
2019-02-02T15:00:29.475Z,99.90
2019-02-02T15:02:57.865Z,99.90
2019-02-02T15:05:26.207Z,99.90
2019-02-02T15:08:01.968Z,99.90
2019-02-02T15:10:29.795Z,99.90
2019-02-02T15:12:57.769Z,99.90
2019-02-02T15:15:25.227Z,99.90
2019-02-02T15:17:53.679Z,99.90
2019-02-02T15:20:29.580Z,99.90
2019-02-02T15:23:00.243Z,99.90
2019-02-02T15:25:28.279Z,99.90
2019-02-02T15:27:55.740Z,99.90
2019-02-02T15:30:28.664Z,99.90
2019-02-02T15:32:57.705Z,99.90
2019-02-02T15:35:26.078Z,99.90
2019-02-02T15:37:53.848Z,99.90
2019-02-02T15:40:21.774Z,99.90
2019-02-02T15:42:49.920Z,99.90
2019-02-02T15:45:19.111Z,99.90
2019-02-02T15:47:56.458Z,99.90
2019-02-02T15:50:25.991Z,99.90
2019-02-02T15:52:53.857Z,99.90
2019-02-02T15:55:21.949Z,99.90
2019-02-02T15:57:49.588Z,99.90
2019-02-02T16:00:25.466Z,99.90
2019-02-02T16:02:53.795Z,99.90
2019-02-02T16:05:22.453Z,99.90
2019-02-02T16:07:50.994Z,99.90
2019-02-02T16:10:23.046Z,99.90
2019-02-02T16:12:51.762Z,99.90
2019-02-02T16:15:20.357Z,99.90
2019-02-02T16:17:48.698Z,99.90
2019-02-02T16:20:25.886Z,99.90
2019-02-02T16:22:54.671Z,99.90
2019-02-02T16:25:23.666Z,99.90
2019-02-02T16:27:51.134Z,99.90
2019-02-02T16:30:26.534Z,99.90
2019-02-02T16:32:54.599Z,99.90
2019-02-02T16:35:24.150Z,99.90
2019-02-02T16:37:52.794Z,99.90
2019-02-02T16:40:28.789Z,99.90
2019-02-02T16:42:56.297Z,99.90
2019-02-02T16:45:25.834Z,99.90
2019-02-02T16:47:54.870Z,99.90
2019-02-02T16:50:29.922Z,99.90
2019-02-02T16:52:57.238Z,99.90
2019-02-02T16:55:24.642Z,99.90
2019-02-02T16:57:52.290Z,99.90
2019-02-02T17:00:28.131Z,99.90
2019-02-02T17:02:55.536Z,99.90
2019-02-02T17:05:22.706Z,99.90
2019-02-02T17:07:49.895Z,99.90
2019-02-02T17:10:26.162Z,99.90
2019-02-02T17:12:53.326Z,99.90
2019-02-02T17:15:20.549Z,99.90
2019-02-02T17:17:49.215Z,99.90
2019-02-02T17:20:22.233Z,99.90
2019-02-02T17:22:49.418Z,99.90
2019-02-02T17:25:17.186Z,99.90
2019-02-02T17:27:44.891Z,99.90
2019-02-02T17:30:14.710Z,99.90
2019-02-02T17:32:45.302Z,99.90
2019-02-02T17:35:14.078Z,99.90
2019-02-02T17:37:42.799Z,99.90
2019-02-02T17:40:16.597Z,99.90
2019-02-02T17:42:44.053Z,99.90
2019-02-02T17:45:17.850Z,99.90
2019-02-02T17:47:45.168Z,99.90
2019-02-02T17:50:16.071Z,99.90
2019-02-02T17:52:43.279Z,99.90
2019-02-02T17:55:18.327Z,99.90
2019-02-02T17:57:46.046Z,99.90
2019-02-02T18:00:15.594Z,99.90
2019-02-02T18:02:44.234Z,99.90
2019-02-02T18:05:12.733Z,99.90
2019-02-02T18:07:47.512Z,99.90
2019-02-02T18:10:16.303Z,99.90
2019-02-02T18:12:44.578Z,99.90
2019-02-02T18:15:13.318Z,99.90
2019-02-02T18:17:41.652Z,99.90
2019-02-02T18:20:14.171Z,99.90
2019-02-02T18:22:42.450Z,99.90
2019-02-02T18:25:12.666Z,99.90
2019-02-02T18:27:41.214Z,99.90
2019-02-02T18:30:17.195Z,99.90
2019-02-02T18:32:46.413Z,99.90
2019-02-02T18:35:15.036Z,99.90
2019-02-02T18:37:43.250Z,99.90
2019-02-02T18:40:14.494Z,99.90
2019-02-02T18:42:46.547Z,99.90
2019-02-02T18:45:16.171Z,99.90
2019-02-02T18:47:44.363Z,99.90
2019-02-02T18:50:13.826Z,99.90
2019-02-02T18:52:48.594Z,99.90
2019-02-02T18:55:18.798Z,99.90
2019-02-02T18:57:47.120Z,99.90
2019-02-02T19:00:17.340Z,99.90
2019-02-02T19:02:51.407Z,99.90
2019-02-02T19:05:20.396Z,99.90
2019-02-02T19:07:49.395Z,99.90
2019-02-02T19:10:20.142Z,99.90
2019-02-02T19:12:49.002Z,99.90
2019-02-02T19:15:19.846Z,99.90
2019-02-02T19:17:48.814Z,99.90
2019-02-02T19:20:18.337Z,99.90
2019-02-02T19:22:49.452Z,99.90
2019-02-02T19:25:27.153Z,99.90
2019-02-02T19:27:58.030Z,99.90
2019-02-02T19:30:28.958Z,99.90
2019-02-02T19:33:00.583Z,99.90
2019-02-02T19:35:27.801Z,99.90
2019-02-02T19:37:54.966Z,99.90
2019-02-02T19:40:22.205Z,99.90
2019-02-02T19:42:50.606Z,99.90
2019-02-02T19:45:20.563Z,99.90
2019-02-02T19:47:52.100Z,99.90
2019-02-02T19:50:22.755Z,99.90
2019-02-02T19:52:51.300Z,99.90
2019-02-02T19:55:19.569Z,99.90
2019-02-02T19:57:47.914Z,99.90
2019-02-02T20:00:21.358Z,99.90
2019-02-02T20:02:50.139Z,99.90
2019-02-02T20:05:28.041Z,99.90
2019-02-02T20:07:49.418Z,99.90
2019-02-02T20:10:22.222Z,99.90
2019-02-02T20:12:50.509Z,99.90
2019-02-02T20:15:20.902Z,99.90
2019-02-02T20:17:49.131Z,99.90
2019-02-02T20:20:24.737Z,99.90
2019-02-02T20:22:52.442Z,99.90
2019-02-02T20:25:20.607Z,99.90
2019-02-02T20:27:48.895Z,99.90
2019-02-02T20:30:19.098Z,99.90
2019-02-02T20:32:49.697Z,99.90
2019-02-02T20:35:18.492Z,99.90
2019-02-02T20:37:47.203Z,99.90
2019-02-02T20:40:17.470Z,99.90
2019-02-02T20:42:45.652Z,99.90
2019-02-02T20:45:21.714Z,99.90
2019-02-02T20:47:48.982Z,99.90
2019-02-02T20:50:16.815Z,99.90
2019-02-02T20:52:47.457Z,99.90
2019-02-02T20:55:19.683Z,99.90
2019-02-02T20:57:47.273Z,99.90
2019-02-02T21:00:17.606Z,99.90
2019-02-02T21:02:45.917Z,99.90
2019-02-02T21:05:14.078Z,99.90
2019-02-02T21:07:46.310Z,99.90
2019-02-02T21:10:15.534Z,99.90
2019-02-02T21:12:43.822Z,99.90
2019-02-02T21:15:12.734Z,99.90
2019-02-02T21:17:41.230Z,99.90
2019-02-02T21:20:12.961Z,99.90
2019-02-02T21:22:41.217Z,99.90
2019-02-02T21:25:10.081Z,99.90
2019-02-02T21:27:38.258Z,99.90
2019-02-02T21:30:14.354Z,99.90
2019-02-02T21:32:42.513Z,99.90
2019-02-02T21:35:10.919Z,99.90
2019-02-02T21:37:39.501Z,99.90
2019-02-02T21:40:10.409Z,99.90
2019-02-02T21:42:43.767Z,99.90
2019-02-02T21:45:11.713Z,99.90
2019-02-02T21:47:40.470Z,99.90
2019-02-02T21:50:12.126Z,99.90
2019-02-02T21:52:40.583Z,99.90
2019-02-02T21:55:10.533Z,99.90
2019-02-02T21:57:38.702Z,99.90
2019-02-02T22:00:11.818Z,99.90
2019-02-02T22:02:40.602Z,99.90
2019-02-02T22:05:16.226Z,99.90
2019-02-02T22:07:43.985Z,99.90
2019-02-02T22:10:13.406Z,99.90
2019-02-02T22:12:41.989Z,99.90
2019-02-02T22:15:18.535Z,99.90
2019-02-02T22:17:47.436Z,99.90
2019-02-02T22:20:15.966Z,99.90
2019-02-02T22:22:44.490Z,99.90
2019-02-02T22:25:22.498Z,99.90
2019-02-02T22:27:49.741Z,99.90
2019-02-02T22:30:22.081Z,99.90
2019-02-02T22:32:51.267Z,99.90
2019-02-02T22:35:20.014Z,99.90
2019-02-02T22:37:49.890Z,99.90
2019-02-02T22:40:18.854Z,99.90
2019-02-02T22:42:46.686Z,99.90
2019-02-02T22:45:16.122Z,99.90
2019-02-02T22:47:49.083Z,99.90
2019-02-02T22:50:19.453Z,99.90
2019-02-02T22:52:48.039Z,99.90
2019-02-02T22:55:17.460Z,99.90
2019-02-02T22:57:45.672Z,99.90
2019-02-02T23:00:56.644Z,99.90
2019-02-02T23:03:30.158Z,99.90
2019-02-02T23:06:39.626Z,99.90
2019-02-02T23:09:55.291Z,99.90
2019-02-02T23:13:29.038Z,99.90
2019-02-02T23:16:25.495Z,99.90
2019-02-02T23:18:53.472Z,99.90
2019-02-02T23:21:20.926Z,99.90
2019-02-02T23:23:55.318Z,99.90
2019-02-02T23:26:22.668Z,99.90
2019-02-02T23:28:49.891Z,99.90
2019-02-02T23:31:17.090Z,99.90
2019-02-02T23:33:44.250Z,99.90
2019-02-02T23:36:16.638Z,99.90
2019-02-02T23:38:44.362Z,99.90
2019-02-02T23:41:11.657Z,99.90
2019-02-02T23:43:38.856Z,99.90
2019-02-02T23:46:06.346Z,99.90
2019-02-02T23:48:34.653Z,99.90
2019-02-02T23:51:02.565Z,99.90
2019-02-02T23:53:32.274Z,99.90
2019-02-02T23:55:59.518Z,99.90
2019-02-02T23:58:26.698Z,99.90
